Time;durP1;ratioP1;P1;durP2;ratioP2;P2;SDS_P1;SDS_P2;PMS_P1;PMS_P2;Temp;Humidity;BMP_temperature;BMP_pressure;BME280_temperature;BME280_humidity;BME280_pressure;Samples;Min_cycle;Max_cycle;Signal;HPM_P1;HPM_P2
2023/03/27 00:01:49;;;;;;;2.67;1.77;;;;;;;10.58;56.61;100036.69;4990292;28;20416;-82
2023/03/27 00:04:14;;;;;;;4.53;1.98;;;;;;;10.52;57.14;100045.63;4957870;28;20039;-83
2023/03/27 00:06:40;;;;;;;9.05;2.90;;;;;;;10.46;57.10;100051.16;4957931;28;20158;-83
2023/03/27 00:09:07;;;;;;;2.38;1.85;;;;;;;10.54;57.68;100066.22;4957904;28;20036;-83
2023/03/27 00:11:33;;;;;;;3.83;1.90;;;;;;;10.56;57.49;100070.38;4989890;28;20117;-83
2023/03/27 00:13:58;;;;;;;14.55;2.83;;;;;;;10.48;57.55;100061.41;4958126;28;20045;-83
2023/03/27 00:16:25;;;;;;;2.45;1.80;;;;;;;10.49;56.94;100050.13;4990165;28;20026;-83
2023/03/27 00:18:51;;;;;;;2.05;1.85;;;;;;;10.53;56.52;100039.53;4974099;28;20033;-83
2023/03/27 00:21:17;;;;;;;2.33;1.50;;;;;;;10.62;56.73;100044.19;4974038;28;20027;-83
2023/03/27 00:23:42;;;;;;;2.72;1.40;;;;;;;10.59;56.97;100044.34;4973573;28;20037;-83
2023/03/27 00:26:08;;;;;;;4.00;1.73;;;;;;;10.61;56.91;100032.16;4977002;28;20034;-83
2023/03/27 00:28:34;;;;;;;2.78;1.70;;;;;;;10.54;56.32;100017.94;4977842;28;20057;-83
2023/03/27 00:30:59;;;;;;;1.90;1.65;;;;;;;10.59;56.65;100028.81;4977663;28;20072;-83
2023/03/27 00:33:25;;;;;;;3.45;2.20;;;;;;;10.69;56.35;100023.94;4977614;28;20062;-82
2023/03/27 00:35:51;;;;;;;3.70;1.80;;;;;;;10.63;56.61;100021.72;4977416;28;20498;-82
2023/03/27 00:38:17;;;;;;;5.93;2.53;;;;;;;10.44;56.37;100014.22;4961208;28;20053;-83
2023/03/27 00:40:43;;;;;;;2.90;2.13;;;;;;;10.52;56.70;100022.38;4961616;28;20042;-82
2023/03/27 00:43:25;;;;;;;5.03;2.85;;;;;;;10.50;56.47;100015.59;4993779;28;20030;-83
2023/03/27 00:45:56;;;;;;;4.07;3.17;;;;;;;10.39;57.04;100005.88;4978346;28;20034;-83
2023/03/27 00:48:21;;;;;;;2.78;1.63;;;;;;;10.40;56.85;100017.88;4977962;28;20273;-83
2023/03/27 00:50:47;;;;;;;4.57;2.63;;;;;;;10.34;57.46;100013.06;4977375;28;20412;-83
2023/03/27 00:53:17;;;;;;;2.90;1.90;;;;;;;10.32;57.17;100005.41;4961025;28;20077;-83
2023/03/27 00:55:44;;;;;;;4.32;1.88;;;;;;;10.37;57.27;100004.31;4977113;28;20077;-83
2023/03/27 00:58:33;;;;;;;2.45;2.22;;;;;;;10.34;57.15;99992.41;4977449;28;20108;-83
2023/03/27 01:00:59;;;;;;;3.53;2.47;;;;;;;10.26;57.62;99990.25;4986884;28;20145;-83
2023/03/27 01:03:28;;;;;;;1.77;1.13;;;;;;;10.07;57.69;99959.41;4977085;28;20484;-83
2023/03/27 01:05:54;;;;;;;4.07;2.22;;;;;;;10.28;58.14;99987.56;4977169;28;20027;-83
2023/03/27 01:08:19;;;;;;;4.13;2.70;;;;;;;10.24;58.24;99986.91;4977151;28;20033;-83
2023/03/27 01:11:02;;;;;;;2.63;1.55;;;;;;;10.08;58.52;99970.59;4977106;28;20034;-83
2023/03/27 01:13:35;;;;;;;4.03;2.47;;;;;;;10.25;58.56;99982.59;4994483;28;20121;-83
2023/03/27 01:16:21;;;;;;;5.38;2.70;;;;;;;10.23;58.90;99979.25;4993195;28;20023;-83
2023/03/27 01:19:27;;;;;;;8.63;3.15;;;;;;;10.16;59.03;99967.56;4993993;28;20045;-82
2023/03/27 01:22:04;;;;;;;6.72;4.43;;;;;;;10.12;58.87;99966.88;4982102;28;20403;-83
2023/03/27 01:25:11;;;;;;;3.78;3.30;;;;;;;10.11;58.96;99965.22;4994224;28;20022;-83
2023/03/27 01:28:02;;;;;;;6.22;2.72;;;;;;;10.05;59.30;99961.25;4991643;28;20030;-83
2023/03/27 01:30:33;;;;;;;5.85;4.28;;;;;;;10.01;59.49;99954.59;4977879;28;20034;-83
2023/03/27 01:33:17;;;;;;;5.80;3.38;;;;;;;9.91;59.77;99953.44;4993129;28;20035;-83
2023/03/27 01:35:55;;;;;;;6.50;2.45;;;;;;;9.99;59.39;99934.94;4994087;28;20046;-83
2023/03/27 01:38:32;;;;;;;7.22;2.80;;;;;;;9.80;59.73;99919.63;4992004;28;20027;-83
2023/03/27 01:41:09;;;;;;;6.10;2.50;;;;;;;9.83;59.97;99916.03;4992465;28;20058;-83
2023/03/27 01:43:55;;;;;;;6.70;2.83;;;;;;;9.92;59.98;99907.78;4993001;28;20022;-83
2023/03/27 01:46:34;;;;;;;7.97;2.95;;;;;;;9.78;60.37;99911.16;4992484;28;20113;-82
2023/03/27 01:49:15;;;;;;;4.43;2.75;;;;;;;9.83;59.86;99913.47;4993859;28;20473;-82
2023/03/27 01:51:42;;;;;;;5.20;3.10;;;;;;;9.62;59.59;99900.00;4976057;28;20507;-83
2023/03/27 01:54:29;;;;;;;4.00;2.42;;;;;;;9.61;59.87;99908.69;4976540;28;20038;-82
2023/03/27 01:57:40;;;;;;;3.95;2.63;;;;;;;9.61;59.51;99919.00;4991835;28;20137;-83
2023/03/27 02:00:16;;;;;;;3.20;1.90;;;;;;;9.26;60.24;99888.25;4993479;28;20487;-83
2023/03/27 02:02:44;;;;;;;1.20;1.10;;;;;;;9.20;60.69;99899.75;4976838;28;20117;-83
2023/03/27 02:05:41;;;;;;;2.88;1.83;;;;;;;9.15;61.82;99898.34;4959808;28;20034;-83
2023/03/27 02:08:19;;;;;;;3.10;2.05;;;;;;;9.22;61.75;99880.75;4991661;28;20041;-82
2023/03/27 02:10:51;;;;;;;1.58;1.10;;;;;;;9.17;61.96;99873.28;4975963;28;20027;-82
2023/03/27 02:13:20;;;;;;;4.25;1.63;;;;;;;9.25;61.51;99876.28;4992167;28;20033;-83
2023/03/27 02:15:47;;;;;;;3.08;1.98;;;;;;;9.29;61.24;99866.59;4976389;28;21093;-83
2023/03/27 02:18:18;;;;;;;1.65;1.48;;;;;;;9.37;61.16;99885.91;4975877;28;20045;-83
2023/03/27 02:20:43;;;;;;;2.28;1.67;;;;;;;9.28;61.83;99876.09;4960092;28;20396;-82
2023/03/27 02:23:08;;;;;;;4.30;1.75;;;;;;;9.34;61.62;99874.91;4992213;28;20026;-83
2023/03/27 02:25:39;;;;;;;3.25;1.42;;;;;;;9.32;61.61;99867.25;4993097;28;20038;-83
2023/03/27 02:28:13;;;;;;;2.53;1.08;;;;;;;9.34;61.05;99852.53;4959684;28;20026;-83
2023/03/27 02:31:17;;;;;;;3.38;1.77;;;;;;;9.33;61.18;99857.75;4975080;28;20085;-83
2023/03/27 02:33:50;;;;;;;2.83;1.58;;;;;;;9.45;61.06;99850.19;4991882;28;20038;-83
2023/03/27 02:36:48;;;;;;;2.20;1.42;;;;;;;9.43;61.19;99858.91;4991042;28;20077;-83
2023/03/27 02:39:20;;;;;;;2.45;1.55;;;;;;;9.17;61.54;99808.75;4991932;28;20041;-83
2023/03/27 02:42:01;;;;;;;5.75;2.95;;;;;;;9.22;61.28;99806.75;4991584;28;20045;-82
2023/03/27 02:44:37;;;;;;;2.05;1.50;;;;;;;9.37;62.19;99851.53;4959816;28;20038;-83
2023/03/27 02:47:06;;;;;;;1.85;1.55;;;;;;;9.38;61.35;99848.84;4991366;28;20420;-83
2023/03/27 02:49:36;;;;;;;2.28;1.45;;;;;;;9.38;61.99;99846.28;4973818;28;20026;-83
2023/03/27 02:52:05;;;;;;;3.17;1.92;;;;;;;9.25;61.65;99845.31;4975284;28;20160;-83
2023/03/27 02:54:33;;;;;;;2.58;1.58;;;;;;;9.16;61.42;99840.66;4991308;28;20072;-83
2023/03/27 02:57:02;;;;;;;2.17;1.65;;;;;;;9.37;61.93;99877.34;4975496;28;20030;-83
2023/03/27 02:59:38;;;;;;;3.83;2.35;;;;;;;9.44;61.27;99853.69;4975256;28;20056;-80
2023/03/27 03:02:05;;;;;;;3.83;2.15;;;;;;;9.37;61.57;99818.78;4976298;28;20117;-82
2023/03/27 03:04:40;;;;;;;3.63;2.03;;;;;;;9.57;61.09;99865.88;4974700;28;20073;-82
2023/03/27 03:07:06;;;;;;;1.80;1.52;;;;;;;9.69;60.67;99849.69;4976188;28;20026;-83
2023/03/27 03:09:32;;;;;;;3.95;1.83;;;;;;;9.73;60.76;99839.09;4974576;28;20038;-83
2023/03/27 03:11:58;;;;;;;2.72;2.00;;;;;;;9.69;60.70;99855.69;4974817;28;20057;-83
2023/03/27 03:14:25;;;;;;;3.03;1.73;;;;;;;9.66;60.97;99839.53;4974827;28;20070;-83
2023/03/27 03:16:51;;;;;;;8.30;1.73;;;;;;;9.66;60.45;99824.06;4958838;28;20030;-83
2023/03/27 03:19:16;;;;;;;3.60;1.85;;;;;;;9.68;60.42;99801.53;4990609;28;20377;-83
2023/03/27 03:21:42;;;;;;;2.15;1.50;;;;;;;9.82;60.74;99847.22;4974610;28;20096;-83
2023/03/27 03:24:07;;;;;;;1.75;1.27;;;;;;;9.75;60.29;99839.00;4974751;28;20034;-83
2023/03/27 03:26:33;;;;;;;3.22;2.05;;;;;;;9.85;60.07;99858.22;4990820;28;20031;-83
2023/03/27 03:28:59;;;;;;;5.15;3.40;;;;;;;9.68;60.32;99837.69;4990444;28;20688;-81
2023/03/27 03:31:25;;;;;;;2.63;2.10;;;;;;;9.68;60.38;99841.13;4972105;28;20397;-80
2023/03/27 03:33:51;;;;;;;2.47;1.88;;;;;;;9.40;60.87;99817.78;4989870;28;20033;-80
2023/03/27 03:36:16;;;;;;;3.30;1.73;;;;;;;9.39;61.63;99847.94;4990272;28;20085;-80
2023/03/27 03:38:41;;;;;;;3.22;2.05;;;;;;;9.37;61.84;99829.13;4990769;28;20056;-80
2023/03/27 03:41:07;;;;;;;3.78;1.58;;;;;;;9.36;62.04;99819.72;4990264;28;20034;-81
2023/03/27 03:43:32;;;;;;;2.45;2.20;;;;;;;9.13;62.30;99809.84;4990582;28;20045;-80
2023/03/27 03:45:58;;;;;;;3.42;1.67;;;;;;;9.17;63.11;99814.75;4989969;28;20030;-81
2023/03/27 03:48:24;;;;;;;2.83;1.98;;;;;;;9.34;62.27;99833.59;4973738;28;20057;-81
2023/03/27 03:50:49;;;;;;;4.63;2.13;;;;;;;9.38;62.37;99822.22;4973989;28;20389;-81
2023/03/27 03:53:16;;;;;;;2.03;1.75;;;;;;;9.33;62.25;99827.63;4974075;28;20030;-81
2023/03/27 03:55:42;;;;;;;2.35;1.40;;;;;;;9.18;62.19;99800.09;4990294;28;20030;-81
2023/03/27 03:58:08;;;;;;;5.10;1.65;;;;;;;9.41;62.40;99845.25;4973516;28;20026;-81
2023/03/27 04:00:38;;;;;;;9.75;6.63;;;;;;;9.42;62.11;99844.34;4990021;28;20040;-81
2023/03/27 04:03:07;;;;;;;3.75;1.48;;;;;;;9.35;62.09;99840.47;4972760;28;20034;-81
2023/03/27 04:05:34;;;;;;;7.18;1.15;;;;;;;9.35;62.51;99840.47;4973393;28;20503;-80
2023/03/27 04:07:59;;;;;;;1.80;1.55;;;;;;;9.21;62.54;99815.41;4957395;28;20026;-81
2023/03/27 04:10:25;;;;;;;2.22;1.50;;;;;;;9.24;62.67;99816.97;4973465;28;20038;-81
2023/03/27 04:12:51;;;;;;;1.88;1.15;;;;;;;9.36;62.56;99826.63;4973764;28;20490;-81
2023/03/27 04:15:17;;;;;;;2.65;1.88;;;;;;;9.28;62.62;99816.72;4973751;28;20033;-81
2023/03/27 04:17:42;;;;;;;2.65;1.63;;;;;;;9.22;62.37;99800.75;4987406;28;20427;-84
2023/03/27 04:20:09;;;;;;;1.75;1.50;;;;;;;9.34;63.32;99787.16;4971539;28;20452;-82
2023/03/27 04:22:36;;;;;;;1.90;1.67;;;;;;;9.29;62.58;99784.00;4973453;28;20022;-82
2023/03/27 04:25:06;;;;;;;1.38;1.27;;;;;;;9.34;62.74;99795.75;4957563;28;20034;-84
2023/03/27 04:27:32;;;;;;;5.10;2.00;;;;;;;9.40;63.42;99816.03;4989806;28;20022;-94
2023/03/27 04:29:57;;;;;;;3.58;1.85;;;;;;;9.52;62.34;99803.34;4989860;28;20039;-92
2023/03/27 04:32:25;;;;;;;1.98;1.77;;;;;;;9.52;62.84;99855.81;4958714;28;20038;-94
2023/03/27 04:34:50;;;;;;;9.30;3.08;;;;;;;9.49;63.06;99849.06;4962826;28;20523;-88
2023/03/27 04:37:17;;;;;;;4.20;3.45;;;;;;;9.56;61.72;99805.66;4974084;28;20026;-88
2023/03/27 04:39:43;;;;;;;7.28;3.70;;;;;;;9.41;61.82;99770.41;4958047;28;20031;-91
2023/03/27 04:42:09;;;;;;;4.03;2.83;;;;;;;9.96;60.57;99742.16;4975157;28;20377;-89
2023/03/27 04:44:35;;;;;;;5.07;2.72;;;;;;;9.80;60.50;99727.66;4973791;28;20034;-89
2023/03/27 04:47:01;;;;;;;4.93;2.63;;;;;;;9.62;61.05;99696.00;4973741;28;20034;-84
2023/03/27 04:49:29;;;;;;;6.20;2.55;;;;;;;9.46;60.92;99668.53;4961839;28;20106;-89
2023/03/27 04:51:55;;;;;;;2.83;2.13;;;;;;;9.61;61.35;99694.34;4974246;28;20054;-84
2023/03/27 04:54:22;;;;;;;3.10;2.45;;;;;;;9.67;60.86;99691.41;4973481;28;20034;-81
2023/03/27 04:56:48;;;;;;;3.38;2.40;;;;;;;9.56;60.93;99693.81;4973656;28;20030;-87
2023/03/27 04:59:17;;;;;;;2.78;2.22;;;;;;;9.44;61.57;99675.53;4974332;28;20030;-93
2023/03/27 05:01:42;;;;;;;4.20;2.17;;;;;;;9.30;62.42;99660.03;4974975;28;20038;-88
2023/03/27 05:04:08;;;;;;;1.27;1.05;;;;;;;9.33;62.32;99657.25;4973156;28;20030;-89
2023/03/27 05:06:33;;;;;;;1.95;1.15;;;;;;;9.31;62.52;99653.94;4973524;28;20447;-93
2023/03/27 05:08:59;;;;;;;0.80;0.80;;;;;;;9.34;62.07;99669.28;4958008;28;20031;-85
2023/03/27 05:11:24;;;;;;;2.85;1.60;;;;;;;9.88;61.69;99666.88;4996680;28;20034;-87
2023/03/27 05:13:50;;;;;;;3.60;2.08;;;;;;;10.07;61.73;99628.63;4992270;28;20023;-86
2023/03/27 05:16:16;;;;;;;2.67;1.80;;;;;;;10.11;59.41;99680.94;5003958;28;20033;-88
2023/03/27 05:18:43;;;;;;;2.78;1.63;;;;;;;9.82;60.47;99658.66;4991835;28;20033;-89
2023/03/27 05:21:10;;;;;;;1.95;1.27;;;;;;;9.75;60.63;99668.53;4983124;28;20026;-87
2023/03/27 05:23:36;;;;;;;1.95;1.50;;;;;;;9.68;60.04;99656.91;4977207;28;20096;-87
2023/03/27 05:26:01;;;;;;;2.05;1.15;;;;;;;9.74;60.28;99677.22;4993297;28;20464;-87
2023/03/27 05:28:28;;;;;;;2.10;1.80;;;;;;;9.67;60.57;99694.00;4960470;28;20045;-93
2023/03/27 05:30:53;;;;;;;1.90;1.17;;;;;;;9.51;60.29;99695.81;5011632;28;20030;-89
2023/03/27 05:33:19;;;;;;;1.38;1.13;;;;;;;9.55;60.52;99685.22;5013920;28;20029;-86
2023/03/27 05:35:45;;;;;;;3.05;2.17;;;;;;;9.54;60.90;99674.97;4990224;28;20500;-83
2023/03/27 05:38:10;;;;;;;2.22;1.27;;;;;;;9.75;61.14;99694.38;4964879;28;20038;-85
2023/03/27 05:40:36;;;;;;;1.48;1.10;;;;;;;9.85;59.89;99710.97;5007297;28;20398;-93
2023/03/27 05:43:02;;;;;;;2.15;1.60;;;;;;;9.81;59.82;99699.16;4977331;28;20038;-85
2023/03/27 05:45:28;;;;;;;5.13;3.97;;;;;;;9.97;60.17;99717.16;4985688;28;20397;-90
2023/03/27 05:47:57;;;;;;;1.98;1.30;;;;;;;10.07;59.39;99716.50;4981391;28;20033;-86
2023/03/27 05:50:25;;;;;;;2.38;1.42;;;;;;;10.16;58.92;99734.94;4994536;28;20510;-83
2023/03/27 05:52:58;;;;;;;1.60;1.20;;;;;;;10.21;58.32;99722.56;4986420;28;20029;-88
2023/03/27 05:55:24;;;;;;;1.52;0.90;;;;;;;10.32;58.33;99712.41;4988138;28;20117;-87
2023/03/27 05:57:49;;;;;;;2.25;1.67;;;;;;;10.47;58.03;99734.75;4987155;28;20105;-88
2023/03/27 06:00:15;;;;;;;2.08;1.25;;;;;;;10.39;56.58;99729.22;4980399;28;20030;-88
2023/03/27 06:02:43;;;;;;;1.88;1.45;;;;;;;10.37;56.84;99719.91;4991567;28;20031;-83
2023/03/27 06:05:14;;;;;;;3.05;1.65;;;;;;;10.34;57.06;99676.97;4974157;28;20482;-87
2023/03/27 06:07:39;;;;;;;1.38;1.20;;;;;;;10.54;56.99;99709.34;4976007;28;20023;-84
2023/03/27 06:10:06;;;;;;;1.40;1.23;;;;;;;10.59;55.62;99702.94;4983711;28;20053;-87
2023/03/27 06:12:33;;;;;;;1.35;1.02;;;;;;;10.61;55.56;99706.22;4991931;28;20103;-88
2023/03/27 06:14:59;;;;;;;2.25;1.52;;;;;;;10.56;55.58;99689.38;5010620;28;20044;-90
2023/03/27 06:17:25;;;;;;;1.58;1.05;;;;;;;10.44;55.79;99659.94;5013251;28;20104;-87
2023/03/27 06:19:50;;;;;;;2.15;1.20;;;;;;;10.70;55.32;99691.06;4996423;28;20038;-89
2023/03/27 06:22:16;;;;;;;1.65;1.13;;;;;;;10.72;54.83;99679.72;4986561;28;20089;-80
2023/03/27 06:24:41;;;;;;;1.02;0.85;;;;;;;10.41;54.37;99649.78;5010637;28;20483;-87
2023/03/27 06:27:07;;;;;;;6.32;1.80;;;;;;;10.57;55.53;99686.69;5010152;28;20144;-84
2023/03/27 06:29:33;;;;;;;4.20;2.22;;;;;;;10.62;56.87;99666.53;5008765;28;20463;-91
2023/03/27 06:32:00;;;;;;;2.75;1.83;;;;;;;10.72;56.91;99678.88;4974201;28;20053;-89
2023/03/27 06:34:26;;;;;;;1.42;1.33;;;;;;;10.73;57.06;99683.94;4978294;28;20128;-92
2023/03/27 06:36:51;;;;;;;2.80;1.88;;;;;;;10.77;56.62;99666.47;4975913;28;20499;-90
2023/03/27 06:39:17;;;;;;;3.17;1.52;;;;;;;10.84;56.73;99673.75;4978049;28;20034;-85
2023/03/27 06:41:42;;;;;;;2.53;1.35;;;;;;;10.89;55.94;99665.66;4988245;28;20062;-82
2023/03/27 06:44:08;;;;;;;2.83;2.03;;;;;;;10.91;55.97;99662.06;5009381;28;20029;-83
2023/03/27 06:46:33;;;;;;;2.78;1.48;;;;;;;10.97;56.05;99650.47;4993058;28;20045;-82
2023/03/27 06:48:58;;;;;;;2.95;2.00;;;;;;;11.01;54.94;99643.31;5009890;28;20037;-88
2023/03/27 06:51:25;;;;;;;1.73;1.08;;;;;;;11.05;54.44;99665.50;5007230;28;20029;-86
2023/03/27 06:53:52;;;;;;;2.33;1.85;;;;;;;11.02;54.28;99639.81;4994296;28;20077;-83
2023/03/27 06:56:18;;;;;;;3.45;2.65;;;;;;;11.02;54.02;99627.72;4990615;28;20532;-80
2023/03/27 06:58:43;;;;;;;4.07;2.60;;;;;;;11.28;54.74;99644.06;4992016;28;20033;-87
2023/03/27 07:01:09;;;;;;;2.47;1.83;;;;;;;11.33;54.72;99625.66;4988012;28;20037;-90
2023/03/27 07:03:34;;;;;;;1.02;0.80;;;;;;;11.26;53.59;99606.28;4976909;28;20038;-86
2023/03/27 07:06:00;;;;;;;2.17;1.35;;;;;;;11.30;53.87;99608.53;4999296;28;20141;-81
2023/03/27 07:08:25;;;;;;;1.35;1.20;;;;;;;11.22;53.68;99622.97;4997689;28;20037;-84
2023/03/27 07:10:53;;;;;;;1.70;1.42;;;;;;;11.12;54.25;99618.41;5009053;28;20135;-92
2023/03/27 07:13:18;;;;;;;68.25;40.65;;;;;;;11.19;54.84;99617.03;5009445;28;20529;-87
2023/03/27 07:15:43;;;;;;;8.35;6.07;;;;;;;11.19;55.54;99592.91;5009315;28;20023;-83
2023/03/27 07:18:09;;;;;;;2.90;1.42;;;;;;;11.23;54.31;99599.56;4985756;28;20038;-91
2023/03/27 07:20:35;;;;;;;3.25;1.85;;;;;;;11.28;55.32;99618.19;4979837;28;20145;-88
2023/03/27 07:23:00;;;;;;;2.63;1.00;;;;;;;11.24;54.70;99605.56;4991060;28;20026;-91
2023/03/27 07:25:27;;;;;;;1.70;1.33;;;;;;;11.27;54.31;99606.16;4990990;28;20116;-92
2023/03/27 07:27:59;;;;;;;1.77;1.48;;;;;;;11.28;55.11;99596.63;4988875;28;20077;-88
2023/03/27 07:30:25;;;;;;;2.27;1.73;;;;;;;11.37;54.19;99614.13;4990354;28;20037;-95
2023/03/27 07:32:50;;;;;;;2.03;1.58;;;;;;;11.28;53.68;99605.22;4977789;28;20402;-87
2023/03/27 07:35:17;;;;;;;3.63;2.13;;;;;;;11.27;53.63;99600.16;5001647;28;20054;-89
2023/03/27 07:37:43;;;;;;;2.70;1.73;;;;;;;11.30;54.61;99594.75;4981955;28;20030;-88
2023/03/27 07:40:12;;;;;;;2.15;1.48;;;;;;;11.38;54.21;99606.25;5008566;28;20030;-96
2023/03/27 07:42:38;;;;;;;2.75;1.75;;;;;;;11.32;53.92;99613.63;4986755;28;20038;-90
2023/03/27 07:45:04;;;;;;;4.30;2.13;;;;;;;11.17;54.08;99566.31;4977059;28;20049;-93
2023/03/27 07:47:30;;;;;;;5.55;2.63;;;;;;;11.43;54.77;99586.06;4975529;28;20023;-87
2023/03/27 07:49:56;;;;;;;2.85;1.58;;;;;;;11.40;55.26;99562.13;5002760;28;20494;-90
2023/03/27 07:52:21;;;;;;;1.70;1.25;;;;;;;11.31;55.47;99586.09;4983913;28;20042;-87
2023/03/27 07:54:47;;;;;;;1.88;1.48;;;;;;;11.37;56.57;99601.19;5008619;28;20029;-87
2023/03/27 07:57:14;;;;;;;2.25;1.58;;;;;;;11.28;55.75;99556.03;4975752;28;20034;-86
2023/03/27 07:59:40;;;;;;;2.30;1.90;;;;;;;11.51;55.99;99574.38;4984484;28;20034;-90
2023/03/27 08:02:06;;;;;;;3.15;1.40;;;;;;;11.54;55.94;99585.31;4989014;28;20508;-89
2023/03/27 08:04:31;;;;;;;4.43;2.00;;;;;;;11.58;56.32;99572.97;4992452;28;20034;-89
2023/03/27 08:06:56;;;;;;;3.17;2.05;;;;;;;11.56;56.27;99577.44;5004780;28;20056;-89
2023/03/27 08:09:22;;;;;;;2.67;2.13;;;;;;;11.63;56.09;99565.72;4977057;28;20026;-86
2023/03/27 08:11:49;;;;;;;4.40;1.98;;;;;;;11.50;54.69;99568.31;5000209;28;20040;-91
2023/03/27 08:14:15;;;;;;;1.98;1.58;;;;;;;11.49;54.88;99571.84;4979552;28;20081;-90
2023/03/27 08:16:40;;;;;;;2.95;1.80;;;;;;;11.51;55.54;99572.59;4991870;28;20026;-84
2023/03/27 08:19:06;;;;;;;4.03;2.35;;;;;;;11.50;56.13;99537.25;4984135;28;20026;-83
2023/03/27 08:21:32;;;;;;;2.85;2.00;;;;;;;11.54;55.65;99574.97;4997579;28;20491;-82
2023/03/27 08:23:58;;;;;;;1.60;1.45;;;;;;;11.51;55.41;99610.63;5008271;28;20124;-90
2023/03/27 08:26:25;;;;;;;4.28;1.73;;;;;;;11.52;55.07;99578.59;4995741;28;20034;-95
2023/03/27 08:28:55;;;;;;;2.88;1.85;;;;;;;11.39;55.70;99627.81;4970231;28;20054;-86
2023/03/27 08:31:20;;;;;;;5.30;2.65;;;;;;;10.95;55.88;99582.47;4991811;28;20026;-85
2023/03/27 08:33:46;;;;;;;2.85;1.70;;;;;;;11.20;56.45;99647.16;5001822;28;20022;-85
2023/03/27 08:36:13;;;;;;;2.33;1.85;;;;;;;11.18;56.24;99663.75;4983762;28;20057;-89
2023/03/27 08:38:42;;;;;;;2.60;2.10;;;;;;;11.02;56.58;99658.78;4972995;28;20030;-88
2023/03/27 08:41:37;;;;;;;4.32;2.10;;;;;;;11.04;57.17;99661.25;4981752;28;20034;-93
2023/03/27 08:44:05;;;;;;;4.07;2.83;;;;;;;10.84;58.22;99685.84;4989301;28;20041;-84
2023/03/27 08:46:39;;;;;;;1.88;1.42;;;;;;;10.75;58.65;99692.44;4991958;28;20038;-92
2023/03/27 08:49:07;;;;;;;3.88;2.22;;;;;;;10.69;59.56;99723.88;4990883;28;20380;-85
2023/03/27 08:52:00;;;;;;;2.65;1.92;;;;;;;10.65;59.94;99752.63;4998836;28;20022;-81
2023/03/27 08:54:30;;;;;;;2.92;1.95;;;;;;;10.57;60.09;99747.91;5009297;28;20046;-84
2023/03/27 08:56:56;;;;;;;5.95;2.22;;;;;;;10.42;60.80;99777.31;5011330;28;20025;-83
2023/03/27 08:59:27;;;;;;;13.38;2.90;;;;;;;10.39;61.09;99773.16;4978789;28;20030;-83
2023/03/27 09:02:26;;;;;;;2.83;2.28;;;;;;;10.36;62.71;99757.84;4996292;28;20061;-88
2023/03/27 09:04:51;;;;;;;3.33;1.90;;;;;;;10.37;63.50;99738.81;5001865;28;20126;-81
2023/03/27 09:07:19;;;;;;;4.32;2.35;;;;;;;10.36;63.84;99724.25;4988756;28;20117;-87
2023/03/27 09:09:52;;;;;;;2.20;1.67;;;;;;;10.13;65.28;99701.50;4991553;28;20085;-83
2023/03/27 09:12:44;;;;;;;2.03;1.83;;;;;;;10.13;65.81;99709.28;4979941;28;20064;-86
2023/03/27 09:15:20;;;;;;;3.63;2.10;;;;;;;10.07;68.17;99724.25;4972901;28;20070;-86
2023/03/27 09:17:48;;;;;;;20.48;4.05;;;;;;;9.94;66.81;99736.25;4999218;28;20088;-92
2023/03/27 09:20:23;;;;;;;3.42;2.75;;;;;;;9.85;68.63;99751.47;4981331;28;20046;-84
2023/03/27 09:22:51;;;;;;;5.50;2.80;;;;;;;9.85;69.63;99747.13;4991829;28;20026;-86
2023/03/27 09:25:29;;;;;;;4.25;2.00;;;;;;;9.85;70.28;99747.13;4987798;28;20121;-93
2023/03/27 09:27:54;;;;;;;4.68;2.55;;;;;;;9.85;70.58;99749.72;4988063;28;20034;-89
2023/03/27 09:30:23;;;;;;;3.63;2.47;;;;;;;9.97;71.28;99751.56;4992227;28;20037;-88
2023/03/27 09:32:50;;;;;;;4.80;2.53;;;;;;;10.04;69.89;99757.22;4975079;28;20101;-84
2023/03/27 09:35:17;;;;;;;4.72;1.65;;;;;;;10.05;69.79;99756.28;4973820;28;20073;-85
2023/03/27 09:37:43;;;;;;;5.38;2.72;;;;;;;10.12;71.21;99748.97;4958874;28;20416;-84
2023/03/27 09:40:22;;;;;;;6.53;4.28;;;;;;;10.05;68.99;99733.84;4985366;28;20522;-83
2023/03/27 09:42:47;;;;;;;2.88;2.03;;;;;;;10.17;71.94;99745.19;4990001;28;20064;-81
2023/03/27 09:45:13;;;;;;;4.60;2.40;;;;;;;10.18;72.54;99733.09;4993009;28;20065;-85
2023/03/27 09:48:06;;;;;;;3.08;1.55;;;;;;;10.30;73.22;99742.72;4973772;28;20440;-86
2023/03/27 09:50:57;;;;;;;3.83;2.55;;;;;;;10.34;71.72;99736.44;5001337;28;20527;-87
2023/03/27 09:53:24;;;;;;;5.00;2.35;;;;;;;10.36;71.62;99741.50;5003879;28;20084;-91
2023/03/27 09:55:58;;;;;;;5.78;3.17;;;;;;;10.42;72.53;99756.63;4969566;28;20437;-92
2023/03/27 09:58:27;;;;;;;5.13;2.88;;;;;;;10.43;70.84;99766.91;4956217;28;20042;-92
2023/03/27 10:01:09;;;;;;;8.15;2.88;;;;;;;10.31;70.33;99745.19;4990218;28;20109;-93
2023/03/27 10:03:40;;;;;;;4.37;2.80;;;;;;;10.45;70.43;99752.09;4998360;28;20164;-92
2023/03/27 10:06:07;;;;;;;5.07;3.05;;;;;;;10.43;72.10;99738.44;4985382;28;20157;-86
2023/03/27 10:08:46;;;;;;;4.68;3.53;;;;;;;10.50;71.53;99731.94;4979161;28;20026;-83
2023/03/27 10:11:26;;;;;;;8.52;4.85;;;;;;;10.75;71.43;99741.59;4975545;28;20030;-83
2023/03/27 10:13:52;;;;;;;6.57;4.00;;;;;;;10.85;73.69;99731.47;4958151;28;20503;-86
2023/03/27 10:16:18;;;;;;;8.98;3.72;;;;;;;10.99;74.16;99726.25;4966971;28;20084;-85
2023/03/27 10:18:52;;;;;;;4.72;2.90;;;;;;;11.00;71.95;99735.66;4974522;28;20080;-83
2023/03/27 10:21:26;;;;;;;5.25;3.63;;;;;;;10.86;70.54;99668.47;4988252;28;20113;-90
2023/03/27 10:23:57;;;;;;;5.85;3.40;;;;;;;11.34;70.84;99712.75;4975857;28;20165;-91
2023/03/27 10:26:25;;;;;;;7.63;3.93;;;;;;;11.50;71.04;99715.97;4991860;28;20076;-87
2023/03/27 10:31:36;;;;;;;5.20;3.30;;;;;;;11.92;69.80;99711.44;4975229;28;20044;-91
2023/03/27 10:34:07;;;;;;;4.00;2.42;;;;;;;11.91;66.66;99683.88;4974344;28;20034;-90
2023/03/27 10:36:36;;;;;;;5.13;3.10;;;;;;;12.08;65.53;99680.91;4991190;28;20058;-86
2023/03/27 10:39:05;;;;;;;5.78;3.13;;;;;;;12.36;66.80;99666.81;4971208;28;20027;-84
2023/03/27 10:41:32;;;;;;;4.57;2.47;;;;;;;12.46;63.51;99633.28;4971287;28;20035;-83
2023/03/27 10:43:58;;;;;;;5.32;2.90;;;;;;;12.69;65.13;99624.66;4971485;28;20030;-83
2023/03/27 10:46:27;;;;;;;3.85;2.15;;;;;;;12.71;65.72;99591.63;4970805;28;20042;-83
2023/03/27 10:48:55;;;;;;;2.80;2.00;;;;;;;12.70;64.09;99571.81;4970756;28;20023;-81
2023/03/27 10:51:43;;;;;;;3.03;2.05;;;;;;;12.81;63.09;99582.22;4972487;28;20476;-84
2023/03/27 10:54:12;;;;;;;7.75;4.88;;;;;;;12.94;64.79;99571.75;4987476;28;20023;-85
2023/03/27 10:57:07;;;;;;;5.10;2.97;;;;;;;12.89;62.96;99568.69;4983071;28;20048;-85
2023/03/27 10:59:40;;;;;;;4.40;3.35;;;;;;;12.83;62.54;99621.03;4992234;28;20034;-86
2023/03/27 11:02:22;;;;;;;3.53;2.35;;;;;;;12.74;63.28;99632.91;4990026;28;20488;-85
2023/03/27 11:04:54;;;;;;;3.60;2.38;;;;;;;12.53;62.11;99611.97;4955718;28;20033;-82
2023/03/27 11:07:48;;;;;;;3.75;2.08;;;;;;;12.66;61.34;99614.47;4958833;28;20474;-88
2023/03/27 11:10:18;;;;;;;3.17;2.22;;;;;;;12.60;62.56;99594.19;4966007;28;20085;-86
2023/03/27 11:12:50;;;;;;;5.38;3.25;;;;;;;12.52;63.70;99580.97;4984210;28;20038;-86
2023/03/27 11:15:21;;;;;;;3.70;2.63;;;;;;;12.72;62.11;99608.03;4988902;28;20500;-83
2023/03/27 11:18:00;;;;;;;5.28;3.10;;;;;;;12.61;62.43;99601.03;4957867;28;20515;-86
2023/03/27 11:20:31;;;;;;;3.70;2.42;;;;;;;12.69;60.91;99629.84;4979463;28;20031;-88
2023/03/27 11:23:16;;;;;;;3.00;2.35;;;;;;;12.70;61.84;99636.69;4970896;28;20029;-86
2023/03/27 11:25:51;;;;;;;3.97;2.83;;;;;;;12.81;62.39;99628.94;4959645;28;20128;-86
2023/03/27 11:28:50;;;;;;;3.22;2.65;;;;;;;12.85;62.84;99614.78;4970756;28;20027;-89
2023/03/27 11:31:31;;;;;;;5.47;2.45;;;;;;;12.97;63.04;99614.81;4989976;28;20500;-88
2023/03/27 11:34:14;;;;;;;3.85;2.42;;;;;;;13.08;61.66;99618.28;4989864;28;20037;-84
2023/03/27 11:36:54;;;;;;;3.47;3.00;;;;;;;13.16;62.12;99596.91;4973473;28;20062;-84
2023/03/27 11:39:52;;;;;;;4.13;2.80;;;;;;;13.45;62.33;99603.31;4973831;28;20030;-82
2023/03/27 11:42:23;;;;;;;2.63;2.00;;;;;;;13.66;61.05;99592.22;4959366;28;20476;-82
2023/03/27 11:44:49;;;;;;;4.25;2.22;;;;;;;13.88;57.26;99600.00;4987810;28;20061;-85
2023/03/27 11:47:18;;;;;;;3.35;2.58;;;;;;;13.85;58.65;99600.22;4972062;28;20023;-87
2023/03/27 11:49:57;;;;;;;10.18;3.13;;;;;;;13.86;58.88;99581.06;4991602;28;20053;-88
2023/03/27 11:52:32;;;;;;;5.80;3.95;;;;;;;13.90;60.98;99582.50;4973902;28;20026;-85
2023/03/27 11:55:07;;;;;;;6.35;3.38;;;;;;;13.92;60.62;99580.59;4989873;28;20045;-86